Time;durP1;ratioP1;P1;durP2;ratioP2;P2;SDS_P1;SDS_P2;PMS_P1;PMS_P2;Temp;Humidity;BMP_temperature;BMP_pressure;BME280_temperature;BME280_humidity;BME280_pressure;Samples;Min_cycle;Max_cycle;Signal;HPM_P1;HPM_P2
2023/11/21 00:00:49;;;;;;;54.92;35.47;;;;;;;;;;6236355;28;20054;-84
2023/11/21 00:03:51;;;;;;;51.85;33.95;;;;;;;;;;6234335;28;20091;-84
2023/11/21 00:06:52;;;;;;;51.53;35.17;;;;;;;;;;6241394;28;20060;-84
2023/11/21 00:09:56;;;;;;;52.38;35.35;;;;;;;;;;6239679;28;20046;-85
2023/11/21 00:12:58;;;;;;;56.45;33.78;;;;;;;;;;6252970;28;20068;-83
2023/11/21 00:16:01;;;;;;;50.42;33.13;;;;;;;;;;6261422;28;20052;-83
2023/11/21 00:22:30;;;;;;;49.47;33.28;;;;;;;;;;6333476;23;20060;-96
2023/11/21 00:28:56;;;;;;;50.90;33.58;;;;;;;;;;6256546;28;20053;-96
2023/11/21 00:32:01;;;;;;;51.00;32.97;;;;;;;;;;6274580;28;20120;-94
2023/11/21 00:38:20;;;;;;;70.47;40.55;;;;;;;;;;6259220;28;20046;-96
2023/11/21 00:41:23;;;;;;;161.05;81.55;;;;;;;;;;6254282;28;20053;-96
2023/11/21 00:44:25;;;;;;;143.50;70.77;;;;;;;;;;6254890;28;20337;-96
2023/11/21 00:47:27;;;;;;;183.20;89.72;;;;;;;;;;6253209;28;20057;-96
2023/11/21 00:50:29;;;;;;;135.93;68.53;;;;;;;;;;6254616;28;20056;-96
2023/11/21 00:53:33;;;;;;;54.72;33.90;;;;;;;;;;6251572;28;20064;-96
2023/11/21 00:56:40;;;;;;;49.88;32.42;;;;;;;;;;6250700;28;20207;-96
2023/11/21 00:59:44;;;;;;;51.38;32.30;;;;;;;;;;6242479;28;20060;-96
2023/11/21 01:02:49;;;;;;;47.85;30.58;;;;;;;;;;6231155;28;20104;-96
2023/11/21 01:05:55;;;;;;;52.95;31.55;;;;;;;;;;6251822;28;20065;-96
2023/11/21 01:09:07;;;;;;;50.45;32.35;;;;;;;;;;6230012;28;20065;-96
2023/11/21 01:12:13;;;;;;;48.35;30.75;;;;;;;;;;6253967;28;20057;-96
2023/11/21 01:15:18;;;;;;;50.13;31.80;;;;;;;;;;6236925;28;20068;-96
2023/11/21 01:18:37;;;;;;;46.38;29.88;;;;;;;;;;6250739;28;20117;-96
2023/11/21 01:21:57;;;;;;;58.13;32.15;;;;;;;;;;6246747;28;20057;-96
2023/11/21 01:24:59;;;;;;;49.08;30.05;;;;;;;;;;6267237;28;20049;-96
2023/11/21 01:31:35;;;;;;;50.50;32.00;;;;;;;;;;6220553;28;20045;-94
2023/11/21 01:38:15;;;;;;;46.38;30.83;;;;;;;;;;6261692;28;20045;-94
2023/11/21 01:41:24;;;;;;;48.22;30.67;;;;;;;;;;6246954;28;20088;-96
2023/11/21 01:48:06;;;;;;;48.10;29.42;;;;;;;;;;6256188;28;20275;-95
2023/11/21 01:51:09;;;;;;;47.08;28.85;;;;;;;;;;6257086;28;20060;-96
2023/11/21 01:54:15;;;;;;;50.38;30.73;;;;;;;;;;6257247;28;20068;-95
2023/11/21 01:57:22;;;;;;;46.03;29.63;;;;;;;;;;6259293;28;20058;-94
2023/11/21 02:00:49;;;;;;;47.47;29.27;;;;;;;;;;6225684;28;20105;-96
2023/11/21 02:04:00;;;;;;;49.05;29.25;;;;;;;;;;6244756;28;20049;-94
2023/11/21 02:10:25;;;;;;;45.97;28.33;;;;;;;;;;6250533;28;20045;-96
2023/11/21 02:13:45;;;;;;;46.55;28.27;;;;;;;;;;6245486;28;20079;-96
2023/11/21 02:16:50;;;;;;;45.90;28.77;;;;;;;;;;6253928;28;20071;-96
2023/11/21 02:19:52;;;;;;;49.03;28.95;;;;;;;;;;6241596;28;20071;-96
2023/11/21 02:26:14;;;;;;;41.30;26.88;;;;;;;;;;6248074;28;20132;-96
2023/11/21 02:29:18;;;;;;;43.08;27.25;;;;;;;;;;6248481;28;20049;-96
2023/11/21 02:35:25;;;;;;;43.05;26.20;;;;;;;;;;6249804;28;20266;-96
2023/11/21 02:38:32;;;;;;;48.42;27.80;;;;;;;;;;6246249;28;20046;-95
2023/11/21 02:41:46;;;;;;;43.45;27.30;;;;;;;;;;6255669;28;20045;-96
2023/11/21 02:44:49;;;;;;;46.83;26.83;;;;;;;;;;6226305;28;20053;-96
2023/11/21 02:47:56;;;;;;;47.03;27.77;;;;;;;;;;6249053;28;20053;-96
2023/11/21 02:50:59;;;;;;;45.92;27.95;;;;;;;;;;6233410;28;20065;-96
2023/11/21 02:54:08;;;;;;;43.85;26.83;;;;;;;;;;6241077;28;20049;-96
2023/11/21 02:57:18;;;;;;;;;;;;;;;;;;6246564;28;20054;-96
2023/11/21 03:00:24;;;;;;;43.90;24.98;;;;;;;;;;6232887;28;19925;-96
2023/11/21 03:03:43;;;;;;;42.92;25.38;;;;;;;;;;6295605;22;20037;-83
2023/11/21 03:06:45;;;;;;;39.83;25.67;;;;;;;;;;6270941;28;20057;-85
2023/11/21 03:09:48;;;;;;;46.72;26.20;;;;;;;;;;6277038;28;20053;-85
2023/11/21 03:12:53;;;;;;;39.73;24.33;;;;;;;;;;6278869;28;20053;-85
2023/11/21 03:15:55;;;;;;;41.40;24.73;;;;;;;;;;6281320;28;20051;-85
2023/11/21 03:18:57;;;;;;;43.90;24.70;;;;;;;;;;6272137;28;20065;-84
2023/11/21 03:21:59;;;;;;;49.28;25.65;;;;;;;;;;6271624;28;20077;-84
2023/11/21 03:25:04;;;;;;;53.15;24.98;;;;;;;;;;6269279;28;20050;-84
2023/11/21 03:28:08;;;;;;;42.15;24.45;;;;;;;;;;6265500;28;20038;-84
2023/11/21 03:31:10;;;;;;;42.75;24.95;;;;;;;;;;6270323;28;20056;-84
2023/11/21 03:34:16;;;;;;;46.35;25.23;;;;;;;;;;6268079;28;20752;-84
2023/11/21 03:37:20;;;;;;;45.05;25.77;;;;;;;;;;6267181;28;20077;-85
2023/11/21 03:40:26;;;;;;;46.72;25.08;;;;;;;;;;6269545;28;20050;-84
2023/11/21 03:43:29;;;;;;;48.40;26.45;;;;;;;;;;6261320;28;20202;-84
2023/11/21 03:46:31;;;;;;;49.50;25.70;;;;;;;;;;6270115;28;20060;-84
2023/11/21 03:49:33;;;;;;;44.30;24.85;;;;;;;;;;6265691;28;20114;-85
2023/11/21 03:52:38;;;;;;;45.25;24.58;;;;;;;;;;6273686;28;20113;-84
2023/11/21 03:55:41;;;;;;;43.75;24.02;;;;;;;;;;6263728;28;20108;-83
2023/11/21 03:58:46;;;;;;;49.47;25.67;;;;;;;;;;6263531;28;20111;-84
2023/11/21 04:01:48;;;;;;;49.53;23.77;;;;;;;;;;6269505;28;20068;-84
2023/11/21 04:04:50;;;;;;;41.65;23.83;;;;;;;;;;6265448;28;20072;-83
2023/11/21 04:07:52;;;;;;;41.85;23.92;;;;;;;;;;6270063;28;20053;-84
2023/11/21 04:10:55;;;;;;;44.92;23.98;;;;;;;;;;6271441;28;20056;-83
2023/11/21 04:13:58;;;;;;;44.67;24.67;;;;;;;;;;6267978;28;20051;-84
2023/11/21 04:17:06;;;;;;;44.20;25.13;;;;;;;;;;6270320;28;20462;-83
2023/11/21 04:20:09;;;;;;;45.25;23.52;;;;;;;;;;6257530;28;20531;-84
2023/11/21 04:23:13;;;;;;;48.40;24.55;;;;;;;;;;6267732;28;20075;-84
2023/11/21 04:26:16;;;;;;;48.00;24.60;;;;;;;;;;6269274;28;20061;-84
2023/11/21 04:29:22;;;;;;;46.80;24.83;;;;;;;;;;6243000;28;20050;-84
2023/11/21 04:32:26;;;;;;;48.67;23.30;;;;;;;;;;6268158;28;20061;-84
2023/11/21 04:35:27;;;;;;;41.33;23.08;;;;;;;;;;6269944;28;20045;-83
2023/11/21 04:38:29;;;;;;;45.05;23.05;;;;;;;;;;6261590;28;20071;-83
2023/11/21 04:41:33;;;;;;;44.53;23.15;;;;;;;;;;6262476;28;20057;-84
2023/11/21 04:44:34;;;;;;;43.27;23.30;;;;;;;;;;6263740;28;20049;-83
2023/11/21 04:47:36;;;;;;;42.45;23.10;;;;;;;;;;6266315;28;20052;-83
2023/11/21 04:50:38;;;;;;;42.97;23.85;;;;;;;;;;6267773;28;20056;-83
2023/11/21 04:53:40;;;;;;;49.35;24.48;;;;;;;;;;6264744;28;20041;-83
2023/11/21 04:56:43;;;;;;;49.38;22.70;;;;;;;;;;6258737;28;20051;-84
2023/11/21 04:59:45;;;;;;;48.80;23.02;;;;;;;;;;6261206;28;20045;-83
2023/11/21 05:02:47;;;;;;;44.78;22.10;;;;;;;;;;6269406;28;20281;-83
2023/11/21 05:05:49;;;;;;;44.90;22.40;;;;;;;;;;6270211;28;20053;-84
2023/11/21 05:08:53;;;;;;;41.63;22.52;;;;;;;;;;6261642;28;20053;-84
2023/11/21 05:11:57;;;;;;;40.55;22.55;;;;;;;;;;6259907;28;20057;-84
2023/11/21 05:14:59;;;;;;;43.20;23.40;;;;;;;;;;6277481;28;20056;-84
2023/11/21 05:18:03;;;;;;;42.60;20.83;;;;;;;;;;6259965;28;20053;-83
2023/11/21 05:21:06;;;;;;;45.90;23.30;;;;;;;;;;6267486;28;20050;-83
2023/11/21 05:24:09;;;;;;;43.40;23.40;;;;;;;;;;6267424;28;20081;-83
2023/11/21 05:27:12;;;;;;;40.33;21.20;;;;;;;;;;6262948;28;20053;-83
2023/11/21 05:30:36;;;;;;;41.22;21.67;;;;;;;;;;6272122;28;20029;-86
2023/11/21 05:33:42;;;;;;;50.03;23.23;;;;;;;;;;6225614;22;20047;-96
2023/11/21 05:36:45;;;;;;;46.85;22.98;;;;;;;;;;6199014;28;20235;-96
2023/11/21 05:39:47;;;;;;;37.90;21.33;;;;;;;;;;6191134;28;20066;-96
2023/11/21 05:46:08;;;;;;;42.65;20.67;;;;;;;;;;6187882;28;20045;-96
2023/11/21 05:49:15;;;;;;;38.40;21.88;;;;;;;;;;6172772;28;20282;-96
2023/11/21 05:52:37;;;;;;;41.88;21.85;;;;;;;;;;6184867;28;20048;-94
2023/11/21 05:55:42;;;;;;;42.58;21.33;;;;;;;;;;6190926;28;20059;-96
2023/11/21 05:58:58;;;;;;;;;;;;;;;;;;6196125;28;20046;-96
2023/11/21 06:02:21;;;;;;;40.38;21.17;;;;;;;;;;6192336;28;19922;-96
2023/11/21 06:05:25;;;;;;;43.45;21.92;;;;;;;;;;6187893;28;20113;-96
2023/11/21 06:08:29;;;;;;;41.13;22.65;;;;;;;;;;6184837;28;20054;-96
2023/11/21 06:11:37;;;;;;;40.22;21.77;;;;;;;;;;6151878;28;20053;-95
2023/11/21 06:18:11;;;;;;;37.70;22.05;;;;;;;;;;6146709;28;20043;-96
2023/11/21 06:21:13;;;;;;;39.47;21.88;;;;;;;;;;6158558;28;20067;-96
2023/11/21 06:24:17;;;;;;;36.83;20.15;;;;;;;;;;6167117;28;20058;-94
2023/11/21 06:27:20;;;;;;;40.20;21.85;;;;;;;;;;6160679;28;20058;-96
2023/11/21 06:30:33;;;;;;;40.60;22.25;;;;;;;;;;6179216;28;20066;-94
2023/11/21 06:33:52;;;;;;;39.47;21.55;;;;;;;;;;6166152;28;20050;-96
2023/11/21 06:36:56;;;;;;;40.00;21.80;;;;;;;;;;6176312;28;20046;-95
2023/11/21 06:40:13;;;;;;;40.30;22.95;;;;;;;;;;6157354;28;20049;-96
2023/11/21 06:43:27;;;;;;;38.42;21.10;;;;;;;;;;6172195;28;20051;-94
2023/11/21 06:53:21;;;;;;;39.30;21.38;;;;;;;;;;6155420;28;20058;-93
2023/11/21 06:56:25;;;;;;;42.90;21.83;;;;;;;;;;6172999;28;20054;-95
2023/11/21 06:59:32;;;;;;;44.70;22.25;;;;;;;;;;6183541;28;20049;-96
2023/11/21 07:06:05;;;;;;;42.35;21.40;;;;;;;;;;6140330;28;20062;-94
2023/11/21 07:09:11;;;;;;;42.80;22.27;;;;;;;;;;6163601;28;20050;-95
2023/11/21 07:12:23;;;;;;;49.28;22.35;;;;;;;;;;6186175;28;20054;-94
2023/11/21 07:15:38;;;;;;;43.75;22.95;;;;;;;;;;6164861;28;20098;-94
2023/11/21 07:18:51;;;;;;;44.30;23.38;;;;;;;;;;6177148;28;20038;-95
2023/11/21 07:22:10;;;;;;;48.50;25.27;;;;;;;;;;6344415;22;20045;-83
2023/11/21 07:25:12;;;;;;;41.50;25.98;;;;;;;;;;6302845;28;20045;-83
2023/11/21 07:28:14;;;;;;;45.35;24.35;;;;;;;;;;6297298;28;20059;-83
2023/11/21 07:31:19;;;;;;;46.38;25.10;;;;;;;;;;6298900;28;20075;-84
2023/11/21 07:34:25;;;;;;;;;;;;;;;;;;6299286;28;20108;-83
2023/11/21 07:37:29;;;;;;;42.88;24.02;;;;;;;;;;6303084;28;21406;-86
2023/11/21 07:40:37;;;;;;;47.08;24.95;;;;;;;;;;6300233;28;20045;-84
2023/11/21 07:43:56;;;;;;;46.03;25.38;;;;;;;;;;6292008;28;20049;-85
2023/11/21 07:47:01;;;;;;;43.63;24.52;;;;;;;;;;6294032;28;20079;-85
2023/11/21 07:50:09;;;;;;;47.35;25.05;;;;;;;;;;6286081;28;20043;-85
2023/11/21 07:53:11;;;;;;;45.55;25.98;;;;;;;;;;6290387;28;20052;-85
2023/11/21 07:56:14;;;;;;;50.05;26.75;;;;;;;;;;6300890;28;20096;-84
2023/11/21 07:59:17;;;;;;;47.13;25.38;;;;;;;;;;6293411;28;20041;-84
2023/11/21 08:02:21;;;;;;;47.30;23.65;;;;;;;;;;6299379;28;20037;-83
2023/11/21 08:22:08;;;;;;;51.10;25.88;;;;;;;;;;6233084;28;20038;-96
2023/11/21 08:25:28;;;;;;;47.25;25.92;;;;;;;;;;6249570;28;20057;-96
2023/11/21 08:28:42;;;;;;;50.90;26.52;;;;;;;;;;6243165;28;20053;-96
2023/11/21 08:31:47;;;;;;;51.20;27.55;;;;;;;;;;6247541;28;20394;-96
2023/11/21 08:34:50;;;;;;;49.80;28.13;;;;;;;;;;6257233;28;20057;-96
2023/11/21 08:41:48;;;;;;;49.15;27.65;;;;;;;;;;6265313;28;20034;-95
2023/11/21 08:54:28;;;;;;;45.95;29.73;;;;;;;;;;7182741;23;20041;-85
2023/11/21 08:57:33;;;;;;;49.58;29.33;;;;;;;;;;6303559;28;20029;-83
2023/11/21 09:00:42;;;;;;;47.42;30.73;;;;;;;;;;6303030;28;20040;-84
2023/11/21 09:03:44;;;;;;;46.15;29.95;;;;;;;;;;6292326;28;20033;-85
2023/11/21 09:06:59;;;;;;;42.20;29.08;;;;;;;;;;6301689;28;20041;-85
2023/11/21 09:10:15;;;;;;;47.88;29.67;;;;;;;;;;6292669;28;20075;-85
2023/11/21 09:13:19;;;;;;;49.88;30.55;;;;;;;;;;6293897;28;20044;-85
2023/11/21 09:19:38;;;;;;;50.67;28.73;;;;;;;;;;6195426;28;20041;-96
2023/11/21 09:32:50;;;;;;;51.53;28.98;;;;;;;;;;6246807;28;20041;-96
2023/11/21 09:36:04;;;;;;;55.65;29.23;;;;;;;;;;6226948;28;20045;-96
2023/11/21 09:42:36;;;;;;;46.15;27.38;;;;;;;;;;6358809;22;20056;-95
2023/11/21 09:45:40;;;;;;;50.95;29.13;;;;;;;;;;6254593;28;20054;-96
2023/11/21 09:48:43;;;;;;;49.33;29.27;;;;;;;;;;6252664;28;20049;-96
2023/11/21 09:51:48;;;;;;;51.42;29.55;;;;;;;;;;6246195;28;20408;-96
2023/11/21 09:58:12;;;;;;;48.13;28.73;;;;;;;;;;6719083;22;20045;-96
2023/11/21 10:04:45;;;;;;;47.47;27.80;;;;;;;;;;7481737;22;20193;-94
2023/11/21 10:07:47;;;;;;;47.95;26.52;;;;;;;;;;6260690;28;20049;-96
2023/11/21 10:14:38;;;;;;;45.88;26.38;;;;;;;;;;6394945;22;20245;-96
2023/11/21 10:24:37;;;;;;;50.15;28.77;;;;;;;;;;6222416;28;20049;-93
2023/11/21 10:27:44;;;;;;;46.80;28.15;;;;;;;;;;6259624;28;20052;-96
2023/11/21 10:30:49;;;;;;;49.22;29.00;;;;;;;;;;6264021;28;20104;-96
2023/11/21 10:33:50;;;;;;;44.40;28.48;;;;;;;;;;6271645;22;20138;-96
2023/11/21 10:36:52;;;;;;;45.22;28.10;;;;;;;;;;6264309;28;20045;-96
2023/11/21 10:39:58;;;;;;;44.33;26.83;;;;;;;;;;6256265;28;20057;-90
2023/11/21 10:43:08;;;;;;;45.95;26.98;;;;;;;;;;6253283;28;20058;-91
2023/11/21 10:46:11;;;;;;;44.17;28.02;;;;;;;;;;6253596;28;20360;-93
2023/11/21 10:49:13;;;;;;;53.60;29.40;;;;;;;;;;6254906;28;20046;-93
2023/11/21 10:52:17;;;;;;;50.30;30.40;;;;;;;;;;6258850;28;20044;-91
2023/11/21 10:55:21;;;;;;;;;;;;;;;;;;6274722;28;20057;-93
2023/11/21 10:58:27;;;;;;;45.65;26.30;;;;;;;;;;6267839;28;19928;-85
2023/11/21 11:01:32;;;;;;;45.00;27.05;;;;;;;;;;6273129;28;20045;-87
2023/11/21 11:04:37;;;;;;;41.63;26.45;;;;;;;;;;6257181;28;20060;-89
2023/11/21 11:07:59;;;;;;;44.50;26.90;;;;;;;;;;6279931;28;20056;-90
2023/11/21 11:11:18;;;;;;;45.08;25.73;;;;;;;;;;6293449;28;20051;-94
2023/11/21 11:14:24;;;;;;;45.03;26.63;;;;;;;;;;6248158;28;20042;-90
2023/11/21 11:17:28;;;;;;;46.35;26.27;;;;;;;;;;6249979;28;20112;-91
2023/11/21 11:20:35;;;;;;;43.75;26.13;;;;;;;;;;6240984;28;20067;-92
2023/11/21 11:23:47;;;;;;;41.80;26.48;;;;;;;;;;6243395;28;20107;-92
2023/11/21 11:26:58;;;;;;;41.38;24.92;;;;;;;;;;6244945;28;20088;-90
2023/11/21 11:30:10;;;;;;;48.97;26.42;;;;;;;;;;6245965;28;20060;-94
2023/11/21 11:40:01;;;;;;;46.78;26.05;;;;;;;;;;6210551;28;20127;-96
2023/11/21 11:46:45;;;;;;;39.65;25.15;;;;;;;;;;6263809;28;20049;-96
2023/11/21 11:50:06;;;;;;;47.72;27.05;;;;;;;;;;6262763;28;20049;-96
2023/11/21 12:04:42;;;;;;;44.97;26.60;;;;;;;;;;6192598;28;20246;-96
2023/11/21 12:14:51;;;;;;;41.85;25.95;;;;;;;;;;6203389;28;20065;-96
2023/11/21 12:29:11;;;;;;;46.22;26.75;;;;;;;;;;6172523;28;20054;-96
2023/11/21 12:32:15;;;;;;;46.75;27.40;;;;;;;;;;6206493;28;20058;-96
2023/11/21 12:38:48;;;;;;;41.30;26.95;;;;;;;;;;6213460;28;20130;-96
2023/11/21 12:55:51;;;;;;;47.53;29.40;;;;;;;;;;6254135;28;20064;-95
2023/11/21 13:02:18;;;;;;;39.88;26.60;;;;;;;;;;6241932;28;20168;-96
2023/11/21 13:12:32;;;;;;;42.58;27.67;;;;;;;;;;6264922;28;20056;-96
2023/11/21 13:15:40;;;;;;;46.28;28.05;;;;;;;;;;6261628;28;20246;-94
2023/11/21 13:18:44;;;;;;;43.70;28.02;;;;;;;;;;6259325;28;20064;-96
2023/11/21 13:28:46;;;;;;;46.78;28.67;;;;;;;;;;6185619;28;20034;-96
2023/11/21 13:31:50;;;;;;;42.55;29.00;;;;;;;;;;6214749;28;20054;-93
2023/11/21 13:34:54;;;;;;;41.15;27.10;;;;;;;;;;6201944;28;20126;-94
2023/11/21 13:38:05;;;;;;;;;;;;;;;;;;6208227;28;20088;-96
2023/11/21 13:55:16;;;;;;;43.22;28.63;;;;;;;;;;6093182;29;20095;-95
2023/11/21 14:09:53;;;;;;;47.22;28.23;;;;;;;;;;6142573;29;20067;-95
2023/11/21 14:23:25;;;;;;;43.40;26.63;;;;;;;;;;6168862;22;20111;-90
2023/11/21 14:26:28;;;;;;;46.33;26.10;;;;;;;;;;6242818;28;20048;-91
2023/11/21 14:29:31;;;;;;;45.30;26.25;;;;;;;;;;6247194;28;20050;-96
2023/11/21 14:32:33;;;;;;;40.97;24.95;;;;;;;;;;6246115;28;20053;-94
2023/11/21 14:35:35;;;;;;;42.17;25.85;;;;;;;;;;6244099;28;20726;-95
2023/11/21 14:38:39;;;;;;;41.05;26.52;;;;;;;;;;6243336;28;20330;-95
2023/11/21 14:41:42;;;;;;;44.50;25.75;;;;;;;;;;6244784;28;20704;-91
2023/11/21 14:44:45;;;;;;;42.85;27.08;;;;;;;;;;6245183;28;20049;-95
2023/11/21 14:47:58;;;;;;;42.63;26.27;;;;;;;;;;6243789;28;20053;-96
2023/11/21 14:54:39;;;;;;;46.90;25.05;;;;;;;;;;6246043;28;20053;-96
2023/11/21 14:57:40;;;;;;;51.72;25.92;;;;;;;;;;6248387;28;20052;-95
2023/11/21 15:00:44;;;;;;;40.78;26.38;;;;;;;;;;6251489;28;20140;-95
2023/11/21 15:03:49;;;;;;;42.65;25.90;;;;;;;;;;6249113;28;20057;-91
2023/11/21 15:06:53;;;;;;;39.90;23.58;;;;;;;;;;6249733;28;20359;-96
2023/11/21 15:09:55;;;;;;;38.58;23.42;;;;;;;;;;6249263;28;20137;-93
2023/11/21 15:12:58;;;;;;;39.70;24.50;;;;;;;;;;6250900;28;20057;-96
2023/11/21 15:16:07;;;;;;;46.35;24.98;;;;;;;;;;6248848;28;20104;-96
2023/11/21 15:19:12;;;;;;;37.65;23.17;;;;;;;;;;6250141;28;20275;-95
2023/11/21 15:22:15;;;;;;;37.25;24.35;;;;;;;;;;6231053;28;20157;-95
2023/11/21 15:25:20;;;;;;;34.47;21.48;;;;;;;;;;6233043;28;20353;-96
2023/11/21 15:28:24;;;;;;;34.20;20.75;;;;;;;;;;6233197;28;20045;-96
2023/11/21 15:31:27;;;;;;;35.33;21.60;;;;;;;;;;6252394;28;20061;-96
2023/11/21 15:34:30;;;;;;;39.53;22.40;;;;;;;;;;6250193;28;20328;-93
2023/11/21 15:37:33;;;;;;;39.65;23.17;;;;;;;;;;6252752;28;20132;-89
2023/11/21 15:40:37;;;;;;;35.30;22.05;;;;;;;;;;6234962;28;20053;-89
2023/11/21 15:43:38;;;;;;;;;;;;;;;;;;6250910;28;20073;-87
2023/11/21 15:46:41;;;;;;;35.55;20.02;;;;;;;;;;6246607;28;19917;-89
2023/11/21 15:49:43;;;;;;;35.37;19.83;;;;;;;;;;6247661;28;20048;-88
2023/11/21 15:52:45;;;;;;;32.03;20.08;;;;;;;;;;6248700;28;20454;-89
2023/11/21 15:55:49;;;;;;;32.55;20.40;;;;;;;;;;6231094;28;20058;-90
2023/11/21 15:58:52;;;;;;;31.83;19.67;;;;;;;;;;6247327;28;20046;-89
2023/11/21 16:01:54;;;;;;;32.75;20.60;;;;;;;;;;6245172;28;20064;-90
2023/11/21 16:04:56;;;;;;;38.33;20.88;;;;;;;;;;6247224;28;20304;-90
2023/11/21 16:07:58;;;;;;;31.85;20.40;;;;;;;;;;6231718;28;20049;-89
2023/11/21 16:11:01;;;;;;;34.75;21.73;;;;;;;;;;6251545;28;20221;-90
2023/11/21 16:14:03;;;;;;;40.30;21.38;;;;;;;;;;6243648;28;20112;-89
2023/11/21 16:17:06;;;;;;;37.25;21.30;;;;;;;;;;6248646;28;20064;-93
2023/11/21 16:20:10;;;;;;;36.08;21.58;;;;;;;;;;6241606;28;20058;-91
2023/11/21 16:23:12;;;;;;;;;;;;;;;;;;6253092;28;20121;-90
2023/11/21 16:26:17;;;;;;;34.35;21.20;;;;;;;;;;6248125;28;20197;-89
2023/11/21 16:29:19;;;;;;;38.40;21.50;;;;;;;;;;6249657;28;20045;-91
2023/11/21 16:32:21;;;;;;;35.38;21.30;;;;;;;;;;6250439;28;20233;-91
2023/11/21 16:35:23;;;;;;;34.25;19.90;;;;;;;;;;6247839;28;20354;-91
2023/11/21 16:38:25;;;;;;;35.13;20.85;;;;;;;;;;6230345;28;20245;-91
2023/11/21 16:41:28;;;;;;;33.67;19.13;;;;;;;;;;6246774;28;20049;-86
2023/11/21 16:44:30;;;;;;;37.80;21.88;;;;;;;;;;6229001;28;20277;-88
2023/11/21 16:47:33;;;;;;;34.67;19.00;;;;;;;;;;6241537;28;20056;-91
2023/11/21 16:50:35;;;;;;;36.15;20.38;;;;;;;;;;6251091;28;20356;-91
2023/11/21 16:53:39;;;;;;;35.03;19.63;;;;;;;;;;6246821;28;20049;-91
2023/11/21 16:56:43;;;;;;;32.67;18.50;;;;;;;;;;6249909;28;20045;-91
2023/11/21 16:59:50;;;;;;;35.58;20.30;;;;;;;;;;6244299;28;20117;-91
2023/11/21 17:02:51;;;;;;;37.03;22.00;;;;;;;;;;6230989;28;20190;-90
2023/11/21 17:05:54;;;;;;;33.58;20.17;;;;;;;;;;6251200;28;20056;-93
2023/11/21 17:08:56;;;;;;;33.88;19.92;;;;;;;;;;6233212;28;20057;-88
2023/11/21 17:12:00;;;;;;;33.95;18.60;;;;;;;;;;6244733;28;20229;-91
2023/11/21 17:15:02;;;;;;;34.67;18.48;;;;;;;;;;6252558;28;20049;-91
2023/11/21 17:18:05;;;;;;;32.15;18.48;;;;;;;;;;6251893;28;20064;-91
2023/11/21 17:21:08;;;;;;;30.55;16.73;;;;;;;;;;6250534;28;20104;-92
2023/11/21 17:24:11;;;;;;;29.50;16.10;;;;;;;;;;6247239;28;20041;-92
2023/11/21 17:27:18;;;;;;;27.70;16.27;;;;;;;;;;6230744;28;20045;-92
2023/11/21 17:30:20;;;;;;;25.58;16.30;;;;;;;;;;6222551;28;20052;-92
2023/11/21 17:33:22;;;;;;;30.05;16.65;;;;;;;;;;6247979;28;20049;-93
2023/11/21 17:36:24;;;;;;;25.67;15.15;;;;;;;;;;6237118;28;20053;-94
2023/11/21 17:39:26;;;;;;;25.63;14.98;;;;;;;;;;6248675;28;20050;-92
2023/11/21 17:42:29;;;;;;;25.92;14.90;;;;;;;;;;6247488;28;20056;-91
2023/11/21 17:45:31;;;;;;;26.02;14.98;;;;;;;;;;6249977;28;20222;-91
2023/11/21 17:48:33;;;;;;;23.85;14.18;;;;;;;;;;6245691;28;20049;-93
2023/11/21 17:51:39;;;;;;;25.25;16.05;;;;;;;;;;6245234;28;20058;-91
2023/11/21 17:54:41;;;;;;;24.70;14.85;;;;;;;;;;6245916;28;20107;-91
2023/11/21 17:57:45;;;;;;;24.10;14.05;;;;;;;;;;6245351;28;20113;-90
2023/11/21 18:00:47;;;;;;;22.38;13.75;;;;;;;;;;6232678;28;20068;-90
2023/11/21 18:03:49;;;;;;;21.08;13.65;;;;;;;;;;6245413;28;20057;-91
2023/11/21 18:06:53;;;;;;;25.65;15.07;;;;;;;;;;6246301;28;20060;-93
2023/11/21 18:09:55;;;;;;;29.13;14.45;;;;;;;;;;6249912;28;20045;-93
2023/11/21 18:13:00;;;;;;;24.73;15.15;;;;;;;;;;6247291;28;20209;-92
2023/11/21 18:16:02;;;;;;;22.70;14.57;;;;;;;;;;6245728;28;20054;-93
2023/11/21 18:19:04;;;;;;;24.25;13.27;;;;;;;;;;6249620;28;20049;-93
2023/11/21 18:22:06;;;;;;;27.85;15.15;;;;;;;;;;6243222;28;20065;-92
2023/11/21 18:25:08;;;;;;;25.13;14.15;;;;;;;;;;6245044;28;20057;-95
2023/11/21 18:28:14;;;;;;;22.05;13.55;;;;;;;;;;6247583;28;20084;-93
2023/11/21 18:31:16;;;;;;;24.23;14.70;;;;;;;;;;6247672;28;20048;-93
2023/11/21 18:34:18;;;;;;;25.92;14.15;;;;;;;;;;6248858;28;20050;-94
2023/11/21 18:37:22;;;;;;;22.25;13.75;;;;;;;;;;6243907;28;20061;-90
2023/11/21 18:40:24;;;;;;;24.50;15.05;;;;;;;;;;6251981;28;20057;-92
2023/11/21 18:43:27;;;;;;;23.75;13.90;;;;;;;;;;6256524;28;20352;-89
2023/11/21 18:46:28;;;;;;;22.90;14.90;;;;;;;;;;6251150;28;20060;-91
2023/11/21 18:49:30;;;;;;;27.70;14.00;;;;;;;;;;6251350;28;20480;-93
2023/11/21 18:52:32;;;;;;;22.98;14.05;;;;;;;;;;6250761;28;20245;-92
2023/11/21 18:55:34;;;;;;;23.95;13.93;;;;;;;;;;6252001;28;20260;-92
2023/11/21 18:58:38;;;;;;;25.00;13.60;;;;;;;;;;6251661;28;20262;-93
2023/11/21 19:01:41;;;;;;;23.48;14.60;;;;;;;;;;6252529;28;20049;-93
2023/11/21 19:04:43;;;;;;;23.60;14.18;;;;;;;;;;6248976;28;20377;-92
2023/11/21 19:07:45;;;;;;;23.02;13.60;;;;;;;;;;6249368;28;20057;-92
2023/11/21 19:10:47;;;;;;;25.55;14.50;;;;;;;;;;6234453;28;20061;-90
2023/11/21 19:13:50;;;;;;;23.27;14.30;;;;;;;;;;6250265;28;20061;-91
2023/11/21 19:16:52;;;;;;;30.50;15.02;;;;;;;;;;6255956;28;20060;-94
2023/11/21 19:19:54;;;;;;;25.23;14.32;;;;;;;;;;6249407;28;20054;-90
2023/11/21 19:22:58;;;;;;;26.05;14.20;;;;;;;;;;6249890;28;20062;-92
2023/11/21 19:26:00;;;;;;;26.13;13.77;;;;;;;;;;6252174;28;20236;-92
2023/11/21 19:29:04;;;;;;;25.63;13.80;;;;;;;;;;6248651;28;20050;-96
2023/11/21 19:32:07;;;;;;;24.15;14.38;;;;;;;;;;6252464;28;20088;-95
2023/11/21 19:35:10;;;;;;;25.48;13.15;;;;;;;;;;6251638;28;20310;-95
2023/11/21 19:38:14;;;;;;;25.38;14.73;;;;;;;;;;6235963;28;20095;-95
2023/11/21 19:41:18;;;;;;;26.15;14.27;;;;;;;;;;6253118;28;20061;-96
2023/11/21 19:44:21;;;;;;;25.30;14.07;;;;;;;;;;6252352;28;20210;-95
2023/11/21 19:47:23;;;;;;;26.25;14.25;;;;;;;;;;6236565;28;20053;-96
2023/11/21 19:50:25;;;;;;;29.63;15.18;;;;;;;;;;6235919;28;20049;-93
2023/11/21 19:53:27;;;;;;;27.10;14.35;;;;;;;;;;6256486;28;20053;-94
2023/11/21 19:56:30;;;;;;;24.10;14.82;;;;;;;;;;6246284;28;20048;-95
2023/11/21 19:59:36;;;;;;;22.65;14.00;;;;;;;;;;6252930;28;20068;-95
2023/11/21 20:02:38;;;;;;;27.10;15.48;;;;;;;;;;6252133;28;20109;-93
2023/11/21 20:05:40;;;;;;;27.63;14.85;;;;;;;;;;6248274;28;20057;-94
2023/11/21 20:08:42;;;;;;;27.13;14.85;;;;;;;;;;6251612;28;20466;-94
2023/11/21 20:11:46;;;;;;;31.45;15.05;;;;;;;;;;6245829;28;20053;-95
2023/11/21 20:14:49;;;;;;;;;;;;;;;;;;6248364;28;20049;-95
2023/11/21 20:17:51;;;;;;;28.05;13.48;;;;;;;;;;6235486;28;19921;-94
2023/11/21 20:20:53;;;;;;;26.98;14.73;;;;;;;;;;6233085;28;20049;-94
2023/11/21 20:23:55;;;;;;;25.30;13.90;;;;;;;;;;6248629;28;20341;-95
2023/11/21 20:26:59;;;;;;;23.95;13.48;;;;;;;;;;6250894;28;20041;-95
2023/11/21 20:30:11;;;;;;;24.45;14.00;;;;;;;;;;6250220;28;20337;-95
2023/11/21 20:33:13;;;;;;;25.08;13.38;;;;;;;;;;6232991;28;20112;-94
2023/11/21 20:36:15;;;;;;;26.05;14.57;;;;;;;;;;6249789;28;20250;-94
2023/11/21 20:39:18;;;;;;;26.85;15.05;;;;;;;;;;6250288;28;20057;-96
2023/11/21 20:42:19;;;;;;;36.42;15.60;;;;;;;;;;6234282;28;20241;-95
2023/11/21 20:45:23;;;;;;;28.95;15.13;;;;;;;;;;6245569;28;20049;-96
2023/11/21 20:48:28;;;;;;;23.75;13.90;;;;;;;;;;6249688;28;20234;-96
2023/11/21 20:51:31;;;;;;;29.33;15.63;;;;;;;;;;6246250;28;20161;-96
2023/11/21 20:54:33;;;;;;;30.50;15.43;;;;;;;;;;6233452;28;20045;-96
2023/11/21 20:57:35;;;;;;;29.15;14.57;;;;;;;;;;6248434;28;20061;-96
2023/11/21 21:00:39;;;;;;;31.27;15.82;;;;;;;;;;6247998;28;20226;-96
2023/11/21 21:03:41;;;;;;;30.35;15.98;;;;;;;;;;6247214;28;20104;-96
2023/11/21 21:06:44;;;;;;;29.38;16.25;;;;;;;;;;6252894;28;20050;-96
2023/11/21 21:09:47;;;;;;;28.35;16.08;;;;;;;;;;6247930;28;20117;-96
2023/11/21 21:12:49;;;;;;;26.50;14.93;;;;;;;;;;6250054;28;20053;-96
2023/11/21 21:15:53;;;;;;;23.73;15.15;;;;;;;;;;6245589;28;20060;-96
2023/11/21 21:18:58;;;;;;;27.98;16.58;;;;;;;;;;6211730;28;20069;-96
2023/11/21 21:22:01;;;;;;;28.95;15.50;;;;;;;;;;6231629;28;20042;-96
2023/11/21 21:25:03;;;;;;;29.58;16.52;;;;;;;;;;6248273;28;20065;-96
2023/11/21 21:28:06;;;;;;;31.70;17.10;;;;;;;;;;6248769;28;20074;-96
2023/11/21 21:31:11;;;;;;;32.00;16.13;;;;;;;;;;6212483;28;20053;-96
2023/11/21 21:34:14;;;;;;;27.30;15.77;;;;;;;;;;6229301;28;20049;-93
2023/11/21 21:37:16;;;;;;;27.17;16.40;;;;;;;;;;6246326;28;20061;-96
2023/11/21 21:40:18;;;;;;;25.20;15.77;;;;;;;;;;6244684;28;20077;-96
2023/11/21 21:43:21;;;;;;;26.25;16.67;;;;;;;;;;6254769;28;20049;-96